sensor_id;sensor_type;location;lat;lon;timestamp;P1;durP1;ratioP1;P2;durP2;ratioP2
27576;SDS011;15011;53.380;10.034;2022-12-07T00:03:12;72.60;;;29.48;;
27576;SDS011;15011;53.380;10.034;2022-12-07T00:08:13;73.13;;;29.05;;
27576;SDS011;15011;53.380;10.034;2022-12-07T00:13:13;63.22;;;28.75;;
27576;SDS011;15011;53.380;10.034;2022-12-07T00:18:14;69.63;;;29.30;;
27576;SDS011;15011;53.380;10.034;2022-12-07T00:23:14;65.40;;;27.90;;
27576;SDS011;15011;53.380;10.034;2022-12-07T00:28:15;72.07;;;29.15;;
27576;SDS011;15011;53.380;10.034;2022-12-07T00:33:15;73.30;;;29.10;;
27576;SDS011;15011;53.380;10.034;2022-12-07T00:38:16;56.97;;;26.20;;
27576;SDS011;15011;53.380;10.034;2022-12-07T00:43:16;54.58;;;24.00;;
27576;SDS011;15011;53.380;10.034;2022-12-07T00:48:17;59.00;;;23.88;;
27576;SDS011;15011;53.380;10.034;2022-12-07T00:53:18;46.35;;;22.52;;
27576;SDS011;15011;53.380;10.034;2022-12-07T00:58:19;45.03;;;20.80;;
27576;SDS011;15011;53.380;10.034;2022-12-07T01:03:19;54.75;;;21.83;;
27576;SDS011;15011;53.380;10.034;2022-12-07T01:08:20;51.85;;;21.02;;
27576;SDS011;15011;53.380;10.034;2022-12-07T01:13:21;39.75;;;17.88;;
27576;SDS011;15011;53.380;10.034;2022-12-07T01:18:22;54.63;;;23.50;;
27576;SDS011;15011;53.380;10.034;2022-12-07T01:23:22;56.78;;;23.88;;
27576;SDS011;15011;53.380;10.034;2022-12-07T01:28:22;54.30;;;21.35;;
27576;SDS011;15011;53.380;10.034;2022-12-07T01:33:23;43.63;;;20.95;;
27576;SDS011;15011;53.380;10.034;2022-12-07T01:38:24;50.05;;;21.52;;
27576;SDS011;15011;53.380;10.034;2022-12-07T01:43:25;45.67;;;19.88;;
27576;SDS011;15011;53.380;10.034;2022-12-07T01:48:28;53.05;;;21.13;;
27576;SDS011;15011;53.380;10.034;2022-12-07T01:53:32;37.60;;;16.58;;
27576;SDS011;15011;53.380;10.034;2022-12-07T01:58:34;38.25;;;17.25;;
27576;SDS011;15011;53.380;10.034;2022-12-07T02:03:39;39.17;;;16.58;;
27576;SDS011;15011;53.380;10.034;2022-12-07T02:08:41;32.42;;;14.02;;
27576;SDS011;15011;53.380;10.034;2022-12-07T02:13:43;35.10;;;14.40;;
27576;SDS011;15011;53.380;10.034;2022-12-07T02:18:55;33.78;;;14.77;;
27576;SDS011;15011;53.380;10.034;2022-12-07T02:29:34;27.05;;;13.15;;
27576;SDS011;15011;53.380;10.034;2022-12-07T02:39:49;31.27;;;11.30;;
27576;SDS011;15011;53.380;10.034;2022-12-07T02:44:53;25.10;;;11.52;;
27576;SDS011;15011;53.380;10.034;2022-12-07T02:49:53;29.45;;;11.65;;
27576;SDS011;15011;53.380;10.034;2022-12-07T02:54:54;26.48;;;10.27;;
27576;SDS011;15011;53.380;10.034;2022-12-07T03:00:05;25.10;;;9.80;;
27576;SDS011;15011;53.380;10.034;2022-12-07T03:05:20;18.40;;;7.68;;
27576;SDS011;15011;53.380;10.034;2022-12-07T03:15:58;21.73;;;7.07;;
27576;SDS011;15011;53.380;10.034;2022-12-07T03:21:05;18.77;;;7.07;;
27576;SDS011;15011;53.380;10.034;2022-12-07T03:26:10;17.85;;;6.68;;
27576;SDS011;15011;53.380;10.034;2022-12-07T03:36:29;14.35;;;6.15;;
27576;SDS011;15011;53.380;10.034;2022-12-07T03:41:54;16.58;;;6.00;;
27576;SDS011;15011;53.380;10.034;2022-12-07T03:57:36;16.52;;;6.53;;
27576;SDS011;15011;53.380;10.034;2022-12-07T04:02:39;22.92;;;8.27;;
27576;SDS011;15011;53.380;10.034;2022-12-07T04:07:40;19.70;;;6.50;;
27576;SDS011;15011;53.380;10.034;2022-12-07T04:12:41;15.52;;;5.40;;
27576;SDS011;15011;53.380;10.034;2022-12-07T04:17:41;16.23;;;5.50;;
27576;SDS011;15011;53.380;10.034;2022-12-07T04:22:42;9.88;;;3.83;;
27576;SDS011;15011;53.380;10.034;2022-12-07T04:27:43;16.55;;;5.18;;
27576;SDS011;15011;53.380;10.034;2022-12-07T04:32:43;11.43;;;3.70;;
27576;SDS011;15011;53.380;10.034;2022-12-07T04:37:43;9.80;;;3.90;;
27576;SDS011;15011;53.380;10.034;2022-12-07T04:42:44;10.27;;;3.13;;
27576;SDS011;15011;53.380;10.034;2022-12-07T04:47:44;11.87;;;3.70;;
27576;SDS011;15011;53.380;10.034;2022-12-07T04:52:45;9.02;;;3.03;;
27576;SDS011;15011;53.380;10.034;2022-12-07T04:57:45;12.13;;;3.38;;
27576;SDS011;15011;53.380;10.034;2022-12-07T05:02:45;8.68;;;3.95;;
27576;SDS011;15011;53.380;10.034;2022-12-07T05:07:46;9.93;;;3.47;;
27576;SDS011;15011;53.380;10.034;2022-12-07T05:12:46;7.00;;;3.38;;
27576;SDS011;15011;53.380;10.034;2022-12-07T05:17:47;6.38;;;2.92;;
27576;SDS011;15011;53.380;10.034;2022-12-07T05:22:47;5.70;;;2.85;;
27576;SDS011;15011;53.380;10.034;2022-12-07T05:27:48;8.30;;;3.00;;
27576;SDS011;15011;53.380;10.034;2022-12-07T05:32:48;6.75;;;3.42;;
27576;SDS011;15011;53.380;10.034;2022-12-07T05:37:49;5.80;;;2.78;;
27576;SDS011;15011;53.380;10.034;2022-12-07T05:42:49;5.53;;;3.08;;
27576;SDS011;15011;53.380;10.034;2022-12-07T05:47:50;8.03;;;2.77;;
27576;SDS011;15011;53.380;10.034;2022-12-07T05:52:50;5.65;;;2.97;;
27576;SDS011;15011;53.380;10.034;2022-12-07T05:57:50;12.85;;;3.47;;
27576;SDS011;15011;53.380;10.034;2022-12-07T06:03:10;6.72;;;3.40;;
27576;SDS011;15011;53.380;10.034;2022-12-07T06:08:10;12.20;;;3.60;;
27576;SDS011;15011;53.380;10.034;2022-12-07T06:13:10;11.45;;;4.32;;
27576;SDS011;15011;53.380;10.034;2022-12-07T06:18:11;12.02;;;4.30;;
27576;SDS011;15011;53.380;10.034;2022-12-07T06:23:12;8.00;;;3.28;;
27576;SDS011;15011;53.380;10.034;2022-12-07T06:28:12;13.98;;;4.07;;
27576;SDS011;15011;53.380;10.034;2022-12-07T06:33:13;14.50;;;4.72;;
27576;SDS011;15011;53.380;10.034;2022-12-07T06:38:13;13.90;;;4.68;;
27576;SDS011;15011;53.380;10.034;2022-12-07T06:43:14;8.65;;;4.03;;
27576;SDS011;15011;53.380;10.034;2022-12-07T06:48:15;11.82;;;4.43;;
27576;SDS011;15011;53.380;10.034;2022-12-07T06:53:16;11.95;;;4.05;;
27576;SDS011;15011;53.380;10.034;2022-12-07T06:58:16;10.95;;;3.95;;
27576;SDS011;15011;53.380;10.034;2022-12-07T07:03:17;17.60;;;4.60;;
27576;SDS011;15011;53.380;10.034;2022-12-07T07:08:18;11.68;;;4.28;;
27576;SDS011;15011;53.380;10.034;2022-12-07T07:13:18;12.23;;;4.57;;
27576;SDS011;15011;53.380;10.034;2022-12-07T07:18:19;9.25;;;4.13;;
27576;SDS011;15011;53.380;10.034;2022-12-07T07:23:20;13.85;;;4.10;;
27576;SDS011;15011;53.380;10.034;2022-12-07T07:28:21;10.13;;;3.75;;
27576;SDS011;15011;53.380;10.034;2022-12-07T07:33:21;12.77;;;4.13;;
27576;SDS011;15011;53.380;10.034;2022-12-07T07:38:22;11.63;;;4.03;;
27576;SDS011;15011;53.380;10.034;2022-12-07T07:43:22;8.20;;;3.97;;
27576;SDS011;15011;53.380;10.034;2022-12-07T07:48:23;9.65;;;3.53;;
27576;SDS011;15011;53.380;10.034;2022-12-07T07:53:25;10.50;;;3.90;;
27576;SDS011;15011;53.380;10.034;2022-12-07T07:58:25;8.43;;;3.38;;
27576;SDS011;15011;53.380;10.034;2022-12-07T08:03:26;10.07;;;3.60;;
27576;SDS011;15011;53.380;10.034;2022-12-07T08:08:26;9.63;;;3.97;;
27576;SDS011;15011;53.380;10.034;2022-12-07T08:13:27;9.52;;;3.63;;
27576;SDS011;15011;53.380;10.034;2022-12-07T08:18:28;9.68;;;4.10;;
27576;SDS011;15011;53.380;10.034;2022-12-07T08:23:28;9.55;;;3.90;;
27576;SDS011;15011;53.380;10.034;2022-12-07T08:28:30;15.07;;;4.40;;
27576;SDS011;15011;53.380;10.034;2022-12-07T08:33:31;11.65;;;4.43;;
27576;SDS011;15011;53.380;10.034;2022-12-07T08:38:33;17.73;;;4.55;;
27576;SDS011;15011;53.380;10.034;2022-12-07T08:43:34;11.55;;;4.10;;
27576;SDS011;15011;53.380;10.034;2022-12-07T08:48:36;12.23;;;3.80;;
27576;SDS011;15011;53.380;10.034;2022-12-07T08:53:40;12.63;;;3.88;;
27576;SDS011;15011;53.380;10.034;2022-12-07T08:58:41;9.20;;;3.83;;
27576;SDS011;15011;53.380;10.034;2022-12-07T09:03:41;8.20;;;3.10;;
27576;SDS011;15011;53.380;10.034;2022-12-07T09:08:43;9.27;;;3.45;;
27576;SDS011;15011;53.380;10.034;2022-12-07T09:13:46;11.35;;;3.20;;
27576;SDS011;15011;53.380;10.034;2022-12-07T09:18:47;6.78;;;2.80;;
27576;SDS011;15011;53.380;10.034;2022-12-07T09:23:47;9.60;;;3.30;;
27576;SDS011;15011;53.380;10.034;2022-12-07T09:28:48;9.63;;;2.65;;
27576;SDS011;15011;53.380;10.034;2022-12-07T09:33:53;5.55;;;3.10;;
27576;SDS011;15011;53.380;10.034;2022-12-07T09:38:57;7.90;;;2.42;;
27576;SDS011;15011;53.380;10.034;2022-12-07T09:44:04;7.43;;;2.30;;
27576;SDS011;15011;53.380;10.034;2022-12-07T09:49:09;9.05;;;2.60;;
27576;SDS011;15011;53.380;10.034;2022-12-07T09:54:13;4.70;;;1.65;;
27576;SDS011;15011;53.380;10.034;2022-12-07T09:59:16;7.03;;;1.80;;
27576;SDS011;15011;53.380;10.034;2022-12-07T10:04:19;7.97;;;1.40;;
27576;SDS011;15011;53.380;10.034;2022-12-07T10:09:21;5.38;;;1.20;;
27576;SDS011;15011;53.380;10.034;2022-12-07T10:14:22;2.95;;;1.30;;
27576;SDS011;15011;53.380;10.034;2022-12-07T10:19:30;4.13;;;0.88;;
27576;SDS011;15011;53.380;10.034;2022-12-07T10:24:32;3.75;;;1.00;;
27576;SDS011;15011;53.380;10.034;2022-12-07T10:29:33;7.80;;;1.13;;
27576;SDS011;15011;53.380;10.034;2022-12-07T10:34:36;6.78;;;1.10;;
27576;SDS011;15011;53.380;10.034;2022-12-07T10:44:41;4.88;;;1.10;;
27576;SDS011;15011;53.380;10.034;2022-12-07T10:55:22;7.78;;;1.38;;
27576;SDS011;15011;53.380;10.034;2022-12-07T11:00:24;5.35;;;1.20;;
27576;SDS011;15011;53.380;10.034;2022-12-07T11:10:42;4.72;;;1.40;;
27576;SDS011;15011;53.380;10.034;2022-12-07T11:15:54;5.20;;;1.38;;
27576;SDS011;15011;53.380;10.034;2022-12-07T11:21:58;7.10;;;1.60;;
27576;SDS011;15011;53.380;10.034;2022-12-07T11:27:06;7.90;;;1.38;;
27576;SDS011;15011;53.380;10.034;2022-12-07T11:37:31;9.27;;;1.60;;
27576;SDS011;15011;53.380;10.034;2022-12-07T11:42:37;6.78;;;1.80;;
27576;SDS011;15011;53.380;10.034;2022-12-07T11:58:18;6.60;;;1.73;;
27576;SDS011;15011;53.380;10.034;2022-12-07T12:03:25;12.40;;;1.73;;
27576;SDS011;15011;53.380;10.034;2022-12-07T12:08:31;4.43;;;2.08;;
27576;SDS011;15011;53.380;10.034;2022-12-07T12:24:32;9.05;;;1.55;;
27576;SDS011;15011;53.380;10.034;2022-12-07T12:29:37;13.32;;;2.33;;
27576;SDS011;15011;53.380;10.034;2022-12-07T12:45:24;7.35;;;2.63;;
27576;SDS011;15011;53.380;10.034;2022-12-07T12:55:45;8.27;;;2.10;;
27576;SDS011;15011;53.380;10.034;2022-12-07T13:06:51;12.70;;;3.97;;
27576;SDS011;15011;53.380;10.034;2022-12-07T13:11:58;17.15;;;2.15;;
27576;SDS011;15011;53.380;10.034;2022-12-07T13:17:01;8.30;;;1.90;;
27576;SDS011;15011;53.380;10.034;2022-12-07T13:22:02;8.07;;;1.85;;
27576;SDS011;15011;53.380;10.034;2022-12-07T13:27:02;7.07;;;1.30;;
27576;SDS011;15011;53.380;10.034;2022-12-07T13:32:03;7.18;;;1.52;;
27576;SDS011;15011;53.380;10.034;2022-12-07T13:52:42;7.13;;;1.33;;
27576;SDS011;15011;53.380;10.034;2022-12-07T13:57:44;11.73;;;1.70;;
27576;SDS011;15011;53.380;10.034;2022-12-07T14:02:57;3.28;;;1.38;;
27576;SDS011;15011;53.380;10.034;2022-12-07T14:23:36;11.55;;;2.05;;
27576;SDS011;15011;53.380;10.034;2022-12-07T14:28:38;3.97;;;1.50;;
27576;SDS011;15011;53.380;10.034;2022-12-07T14:38:41;10.82;;;2.53;;
27576;SDS011;15011;53.380;10.034;2022-12-07T14:43:42;7.43;;;2.53;;
27576;SDS011;15011;53.380;10.034;2022-12-07T14:48:42;11.73;;;3.17;;
27576;SDS011;15011;53.380;10.034;2022-12-07T14:53:44;12.75;;;2.60;;
27576;SDS011;15011;53.380;10.034;2022-12-07T14:58:48;9.27;;;4.38;;
27576;SDS011;15011;53.380;10.034;2022-12-07T15:03:49;8.75;;;3.85;;
27576;SDS011;15011;53.380;10.034;2022-12-07T15:08:49;14.35;;;3.40;;
27576;SDS011;15011;53.380;10.034;2022-12-07T15:13:49;9.40;;;3.40;;
27576;SDS011;15011;53.380;10.034;2022-12-07T15:19:12;12.82;;;2.72;;
27576;SDS011;15011;53.380;10.034;2022-12-07T15:24:23;7.80;;;2.38;;
27576;SDS011;15011;53.380;10.034;2022-12-07T15:29:24;10.65;;;2.85;;
27576;SDS011;15011;53.380;10.034;2022-12-07T15:34:25;15.30;;;3.00;;
27576;SDS011;15011;53.380;10.034;2022-12-07T15:39:28;10.85;;;4.57;;
27576;SDS011;15011;53.380;10.034;2022-12-07T15:44:28;16.20;;;4.40;;
27576;SDS011;15011;53.380;10.034;2022-12-07T15:49:47;12.40;;;4.15;;
27576;SDS011;15011;53.380;10.034;2022-12-07T15:54:48;11.32;;;3.00;;
27576;SDS011;15011;53.380;10.034;2022-12-07T15:59:48;12.50;;;3.08;;
27576;SDS011;15011;53.380;10.034;2022-12-07T16:04:49;10.70;;;2.60;;
27576;SDS011;15011;53.380;10.034;2022-12-07T16:09:50;10.63;;;3.15;;
27576;SDS011;15011;53.380;10.034;2022-12-07T16:14:51;8.93;;;2.60;;
27576;SDS011;15011;53.380;10.034;2022-12-07T16:19:51;11.00;;;2.85;;
27576;SDS011;15011;53.380;10.034;2022-12-07T16:24:53;11.57;;;3.22;;
27576;SDS011;15011;53.380;10.034;2022-12-07T16:29:53;10.27;;;4.10;;
27576;SDS011;15011;53.380;10.034;2022-12-07T16:34:54;12.48;;;4.45;;
27576;SDS011;15011;53.380;10.034;2022-12-07T16:39:54;17.58;;;6.38;;
27576;SDS011;15011;53.380;10.034;2022-12-07T16:44:55;15.07;;;5.88;;
27576;SDS011;15011;53.380;10.034;2022-12-07T16:49:55;12.00;;;6.35;;
27576;SDS011;15011;53.380;10.034;2022-12-07T16:54:56;14.43;;;5.57;;
27576;SDS011;15011;53.380;10.034;2022-12-07T16:59:56;16.73;;;7.38;;
27576;SDS011;15011;53.380;10.034;2022-12-07T17:04:57;17.83;;;6.25;;
27576;SDS011;15011;53.380;10.034;2022-12-07T17:09:57;15.40;;;6.00;;
27576;SDS011;15011;53.380;10.034;2022-12-07T17:14:58;18.35;;;6.60;;
27576;SDS011;15011;53.380;10.034;2022-12-07T17:20:16;10.75;;;5.85;;
27576;SDS011;15011;53.380;10.034;2022-12-07T17:25:17;13.95;;;6.10;;
27576;SDS011;15011;53.380;10.034;2022-12-07T17:30:18;12.88;;;6.70;;
27576;SDS011;15011;53.380;10.034;2022-12-07T17:35:18;18.73;;;8.32;;
27576;SDS011;15011;53.380;10.034;2022-12-07T17:40:19;15.15;;;6.68;;
27576;SDS011;15011;53.380;10.034;2022-12-07T17:45:19;16.85;;;7.35;;
27576;SDS011;15011;53.380;10.034;2022-12-07T17:50:20;14.23;;;6.70;;
27576;SDS011;15011;53.380;10.034;2022-12-07T17:55:40;20.50;;;7.10;;
27576;SDS011;15011;53.380;10.034;2022-12-07T18:00:40;14.18;;;7.32;;
27576;SDS011;15011;53.380;10.034;2022-12-07T18:05:42;15.85;;;8.60;;
27576;SDS011;15011;53.380;10.034;2022-12-07T18:15:44;20.23;;;10.63;;
27576;SDS011;15011;53.380;10.034;2022-12-07T18:20:45;25.88;;;12.90;;
27576;SDS011;15011;53.380;10.034;2022-12-07T18:25:46;30.67;;;13.38;;
27576;SDS011;15011;53.380;10.034;2022-12-07T18:30:47;27.58;;;16.88;;
27576;SDS011;15011;53.380;10.034;2022-12-07T18:40:50;31.52;;;17.75;;
27576;SDS011;15011;53.380;10.034;2022-12-07T18:45:51;34.80;;;17.85;;
27576;SDS011;15011;53.380;10.034;2022-12-07T18:51:01;29.60;;;15.05;;
27576;SDS011;15011;53.380;10.034;2022-12-07T18:56:04;30.42;;;16.95;;
27576;SDS011;15011;53.380;10.034;2022-12-07T19:01:25;30.52;;;17.20;;
27576;SDS011;15011;53.380;10.034;2022-12-07T19:06:26;32.10;;;19.63;;
27576;SDS011;15011;53.380;10.034;2022-12-07T19:11:28;31.35;;;19.58;;
27576;SDS011;15011;53.380;10.034;2022-12-07T19:16:50;40.67;;;22.05;;
27576;SDS011;15011;53.380;10.034;2022-12-07T19:21:52;61.20;;;31.73;;
27576;SDS011;15011;53.380;10.034;2022-12-07T19:26:52;53.58;;;29.83;;
27576;SDS011;15011;53.380;10.034;2022-12-07T19:31:52;55.80;;;30.27;;
27576;SDS011;15011;53.380;10.034;2022-12-07T19:36:53;36.40;;;17.52;;
27576;SDS011;15011;53.380;10.034;2022-12-07T19:41:53;33.60;;;18.08;;
27576;SDS011;15011;53.380;10.034;2022-12-07T19:46:55;43.00;;;20.50;;
27576;SDS011;15011;53.380;10.034;2022-12-07T19:52:00;31.85;;;17.08;;
27576;SDS011;15011;53.380;10.034;2022-12-07T19:57:05;32.00;;;17.20;;
27576;SDS011;15011;53.380;10.034;2022-12-07T20:02:09;22.30;;;10.90;;
27576;SDS011;15011;53.380;10.034;2022-12-07T20:07:11;28.38;;;14.57;;
27576;SDS011;15011;53.380;10.034;2022-12-07T20:12:12;27.60;;;14.38;;
27576;SDS011;15011;53.380;10.034;2022-12-07T20:17:32;26.98;;;14.32;;
27576;SDS011;15011;53.380;10.034;2022-12-07T20:22:32;36.40;;;15.20;;
27576;SDS011;15011;53.380;10.034;2022-12-07T20:27:33;32.20;;;15.38;;
27576;SDS011;15011;53.380;10.034;2022-12-07T20:32:33;27.60;;;13.43;;
27576;SDS011;15011;53.380;10.034;2022-12-07T20:37:33;27.23;;;13.60;;
27576;SDS011;15011;53.380;10.034;2022-12-07T20:42:34;22.70;;;10.48;;
27576;SDS011;15011;53.380;10.034;2022-12-07T20:47:37;22.98;;;10.93;;
27576;SDS011;15011;53.380;10.034;2022-12-07T20:52:37;28.70;;;10.10;;
27576;SDS011;15011;53.380;10.034;2022-12-07T20:57:38;30.13;;;14.55;;
27576;SDS011;15011;53.380;10.034;2022-12-07T21:02:39;40.30;;;17.35;;
27576;SDS011;15011;53.380;10.034;2022-12-07T21:07:39;35.47;;;16.90;;
27576;SDS011;15011;53.380;10.034;2022-12-07T21:12:40;36.22;;;17.67;;
27576;SDS011;15011;53.380;10.034;2022-12-07T21:17:40;38.85;;;19.45;;
27576;SDS011;15011;53.380;10.034;2022-12-07T21:22:41;46.15;;;20.88;;
27576;SDS011;15011;53.380;10.034;2022-12-07T21:27:41;32.15;;;18.10;;
27576;SDS011;15011;53.380;10.034;2022-12-07T21:32:42;43.57;;;20.80;;
27576;SDS011;15011;53.380;10.034;2022-12-07T21:37:42;38.75;;;19.05;;
27576;SDS011;15011;53.380;10.034;2022-12-07T21:42:43;32.50;;;18.52;;
27576;SDS011;15011;53.380;10.034;2022-12-07T21:47:44;36.50;;;19.43;;
27576;SDS011;15011;53.380;10.034;2022-12-07T21:52:45;46.10;;;23.13;;
27576;SDS011;15011;53.380;10.034;2022-12-07T21:57:45;43.35;;;21.55;;
27576;SDS011;15011;53.380;10.034;2022-12-07T22:02:46;50.38;;;23.13;;
27576;SDS011;15011;53.380;10.034;2022-12-07T22:07:46;64.30;;;25.90;;
27576;SDS011;15011;53.380;10.034;2022-12-07T22:12:46;72.70;;;28.65;;
27576;SDS011;15011;53.380;10.034;2022-12-07T22:17:47;108.30;;;32.65;;
27576;SDS011;15011;53.380;10.034;2022-12-07T22:22:48;68.55;;;28.73;;
27576;SDS011;15011;53.380;10.034;2022-12-07T22:27:49;85.38;;;31.08;;
27576;SDS011;15011;53.380;10.034;2022-12-07T22:32:49;91.45;;;32.47;;
27576;SDS011;15011;53.380;10.034;2022-12-07T22:37:50;85.53;;;30.42;;
27576;SDS011;15011;53.380;10.034;2022-12-07T22:42:50;68.93;;;28.13;;
27576;SDS011;15011;53.380;10.034;2022-12-07T22:47:50;93.90;;;32.13;;
27576;SDS011;15011;53.380;10.034;2022-12-07T22:52:52;99.00;;;33.30;;
27576;SDS011;15011;53.380;10.034;2022-12-07T22:57:53;87.50;;;31.55;;
27576;SDS011;15011;53.380;10.034;2022-12-07T23:02:54;108.05;;;32.55;;
27576;SDS011;15011;53.380;10.034;2022-12-07T23:07:54;99.45;;;33.17;;
27576;SDS011;15011;53.380;10.034;2022-12-07T23:12:55;68.22;;;28.20;;
27576;SDS011;15011;53.380;10.034;2022-12-07T23:18:14;79.65;;;30.85;;
27576;SDS011;15011;53.380;10.034;2022-12-07T23:23:14;101.78;;;31.80;;
27576;SDS011;15011;53.380;10.034;2022-12-07T23:28:15;62.97;;;26.75;;
27576;SDS011;15011;53.380;10.034;2022-12-07T23:33:15;62.60;;;26.00;;
27576;SDS011;15011;53.380;10.034;2022-12-07T23:38:16;82.57;;;29.10;;
27576;SDS011;15011;53.380;10.034;2022-12-07T23:43:16;62.35;;;26.65;;
27576;SDS011;15011;53.380;10.034;2022-12-07T23:48:17;56.30;;;25.77;;
27576;SDS011;15011;53.380;10.034;2022-12-07T23:53:17;49.55;;;24.35;;
27576;SDS011;15011;53.380;10.034;2022-12-07T23:58:18;68.13;;;26.90;;
